Minerva Concert — SVWC — position and weather

sailwx.info

Track history (hours):
 
Tides and Currents Weather Stations Pressure Air Temp Water Temp Dewpoint Dewpoint Depression Visibility Wind Speed Wind Dir Waves Ship Positions

Minerva Concert

Last reported at 2016-Jul-29 03:17 UTC. Time now 2016-Jul-29 23:35 UTC.
Position N 29°44' W 089°60'.

Length 241 m; draft 13.7 m.

Type: Ship. MMSI: 240110000.

Date/timePositionNaut miles runAvg speedWind from/ knotsBaromVisibWave heightAir tempDewpointWater temp
2016-Jul-29 03:17N 29°44' W 089°60'811.4
2016-Jul-29 02:33N 29°52' W 089°59'5 4.5
2016-Jul-29 01:33N 29°56' W 089°60'7 6.9
2016-Jul-29 00:33N 29°55' W 090°08'9 7.3
2016-Jul-28 23:23N 29°58' W 090°17'3 0.1
2016-Jul-27 13:33N 29°58' W 090°14'5 4.9
2016-Jul-27 12:34N 29°56' W 090°08'4 4.3
2016-Jul-27 11:33N 29°57' W 090°04'7 6.9
2016-Jul-27 10:33N 29°55' W 089°56'4 4.3
2016-Jul-27 09:33N 29°52' W 089°59'8 7.9
2016-Jul-27 08:32N 29°44' W 089°60'  
2016-Jul-23 12:27N 25°50' W 079°24'1011.6
2016-Jul-23 11:33N 25°60' W 079°20'1612.0
2016-Jul-23 10:16N 26°14' W 079°13'  
Track history (hours):
 
Tides and Currents Weather Stations Pressure Air Temp Water Temp Dewpoint Dewpoint Depression Visibility Wind Speed Wind Dir Waves Ship Positions

Minerva Concert

Last reported at 2016-Jul-29 03:17 UTC. Time now 2016-Jul-29 23:35 UTC.
Position N 29°44' W 089°60'.

Length 241 m; draft 13.7 m.

Type: Ship. MMSI: 240110000.

Date/timePositionNaut miles runAvg speedWind from/ knotsBaromVisibWave heightAir tempDewpointWater temp
2016-Jul-29 03:17N 29°44' W 089°60'811.4
2016-Jul-29 02:33N 29°52' W 089°59'5 4.5
2016-Jul-29 01:33N 29°56' W 089°60'7 6.9
2016-Jul-29 00:33N 29°55' W 090°08'9 7.3
2016-Jul-28 23:23N 29°58' W 090°17'3 0.1
2016-Jul-27 13:33N 29°58' W 090°14'5 4.9
2016-Jul-27 12:34N 29°56' W 090°08'4 4.3
2016-Jul-27 11:33N 29°57' W 090°04'7 6.9
2016-Jul-27 10:33N 29°55' W 089°56'4 4.3
2016-Jul-27 09:33N 29°52' W 089°59'8 7.9
2016-Jul-27 08:32N 29°44' W 089°60'  
2016-Jul-23 12:27N 25°50' W 079°24'1011.6
2016-Jul-23 11:33N 25°60' W 079°20'1612.0
2016-Jul-23 10:16N 26°14' W 079°13'  

Dump ship's entire track history